MSC Rania — 3EEB3 — position and weather

sailwx.info

Track history (hours):
 
Tides and Currents Weather Stations Pressure Air Temp Water Temp Dewpoint Dewpoint Depression Visibility Wind Speed Wind Dir Waves Ship Positions

MSC Rania

Last reported at 2016-Apr-23 23:30 UTC. Time now 2016-May-02 12:40 UTC.
Position N 02°04' E 102°09'.
Warning: this ship's position is 8 days out of date.

Length 332 m; draft 12.3 m.

Type: Ship (hazmat cat A). MMSI: 371752000.

Date/timePositionNaut miles runAvg speedWind from/ knotsBaromVisibWave heightAir tempDewpointWater temp
2016-Apr-23 23:30N 02°04' E 102°09'2021.4
2016-Apr-23 22:33N 01°53' E 102°26'2222.4
2016-Apr-23 21:33N 01°42' E 102°45'4722.5
2016-Apr-23 19:28N 01°15' E 103°24'1617.6
2016-Apr-23 18:33N 01°13' E 103°40'7 7.1
2016-Apr-23 17:33N 01°16' E 103°46'0 0.4
2016-Apr-23 16:32N 01°16' E 103°46'0 0.0
2016-Apr-23 15:32N 01°16' E 103°46'0 0.0
2016-Apr-23 14:32N 01°16' E 103°46'0 0.0
2016-Apr-23 13:29N 01°16' E 103°46'0 0.0
2016-Apr-23 12:32N 01°16' E 103°46'0 0.0
2016-Apr-23 11:32N 01°16' E 103°46'0 0.0
2016-Apr-23 10:29N 01°16' E 103°46'0 0.0
2016-Apr-23 09:32N 01°16' E 103°46'0 0.0
2016-Apr-23 08:32N 01°16' E 103°46'0 0.1
2016-Apr-23 07:32N 01°16' E 103°46'0 0.1
2016-Apr-23 06:29N 01°16' E 103°46'0 0.0
2016-Apr-23 05:29N 01°16' E 103°46'0 0.0
2016-Apr-23 04:32N 01°16' E 103°46'0 0.0
2016-Apr-23 03:32N 01°16' E 103°46'0 0.0
2016-Apr-23 02:32N 01°16' E 103°46'0 0.0
2016-Apr-23 01:29N 01°16' E 103°46'0 0.0
2016-Apr-23 00:29N 01°16' E 103°46'0 0.0
2016-Apr-22 23:29N 01°16' E 103°46'0 0.0
2016-Apr-22 22:32N 01°16' E 103°46'0 0.0
2016-Apr-22 21:23N 01°16' E 103°46'0 0.0
2016-Apr-22 20:28N 01°16' E 103°46'0 0.0
2016-Apr-22 19:28N 01°16' E 103°46'0 0.0
2016-Apr-22 18:28N 01°16' E 103°46'0 0.0
2016-Apr-22 17:28N 01°16' E 103°46'0 0.0
2016-Apr-22 16:31N 01°16' E 103°46'0 0.4
2016-Apr-22 15:33N 01°16' E 103°46'1 0.9
2016-Apr-22 14:33N 01°15' E 103°47'0 0.2
2016-Apr-22 13:33N 01°15' E 103°47'6 6.4
2016-Apr-22 12:33N 01°13' E 103°53'6 5.7
2016-Apr-22 11:33N 01°15' E 103°58'7 6.3
2016-Apr-22 10:27N 01°16' E 104°05'  
2016-Apr-19 10:32N 22°07' E 114°30'30 2.0
2016-Apr-18 19:15N 22°34' E 114°16'0 0.0
2016-Apr-18 17:33N 22°34' E 114°16'23 7.4
2016-Apr-18 14:25N 22°13' E 114°26'1214.0
2016-Apr-18 13:33N 22°07' E 114°15'1313.0
2016-Apr-18 12:34N 22°17' E 114°06'3 2.9
2016-Apr-18 11:30N 22°20' E 114°07'0 0.0
2016-Apr-18 10:30N 22°20' E 114°07'0 0.0
2016-Apr-18 09:30N 22°20' E 114°07'0 0.0
2016-Apr-18 08:33N 22°20' E 114°07'0 0.0
2016-Apr-18 07:30N 22°20' E 114°07'0 0.0
2016-Apr-18 06:30N 22°20' E 114°07'0 0.0
2016-Apr-18 05:30N 22°20' E 114°07'0 0.0
2016-Apr-18 04:30N 22°20' E 114°07'0 0.0
2016-Apr-18 03:30N 22°20' E 114°07'0 0.0
2016-Apr-18 02:30N 22°20' E 114°07'0 0.0
2016-Apr-18 01:30N 22°20' E 114°07'2 2.0
2016-Apr-18 00:34N 22°20' E 114°05'3 0.2
2016-Apr-17 08:29N 22°21' E 114°03'2010.2
2016-Apr-17 06:32N 22°08' E 114°18'32115.9
2016-Apr-16 10:17N 22°31' E 120°05'1316.7
2016-Apr-16 09:32N 22°33' E 120°18'0 0.0
2016-Apr-15 17:33N 22°33' E 120°18'6 6.1
2016-Apr-15 16:33N 22°33' E 120°12'1414.5
2016-Apr-15 15:33N 22°46' E 120°03'40119.8
2016-Apr-14 19:20N 29°04' E 122°28'1719.6
2016-Apr-14 18:27N 29°22' E 122°29'1819.4
2016-Apr-14 17:31N 29°40' E 122°29'1514.9
2016-Apr-14 16:30N 29°48' E 122°15'1111.4
2016-Apr-14 15:33N 29°55' E 122°05'2 0.6
2016-Apr-14 11:30N 29°54' E 122°02'0 0.0
2016-Apr-14 10:27N 29°54' E 122°02'0 0.0
2016-Apr-14 08:30N 29°54' E 122°02'0 0.0
2016-Apr-14 07:23N 29°54' E 122°02'0 0.0
2016-Apr-14 06:08N 29°54' E 122°02'0 0.0
2016-Apr-14 04:29N 29°54' E 122°02'  
Track history (hours):
 
Tides and Currents Weather Stations Pressure Air Temp Water Temp Dewpoint Dewpoint Depression Visibility Wind Speed Wind Dir Waves Ship Positions

MSC Rania

Last reported at 2016-Apr-23 23:30 UTC. Time now 2016-May-02 12:40 UTC.
Position N 02°04' E 102°09'.
Warning: this ship's position is 8 days out of date.

Length 332 m; draft 12.3 m.

Type: Ship (hazmat cat A). MMSI: 371752000.

Date/timePositionNaut miles runAvg speedWind from/ knotsBaromVisibWave heightAir tempDewpointWater temp
2016-Apr-23 23:30N 02°04' E 102°09'2021.4
2016-Apr-23 22:33N 01°53' E 102°26'2222.4
2016-Apr-23 21:33N 01°42' E 102°45'4722.5
2016-Apr-23 19:28N 01°15' E 103°24'1617.6
2016-Apr-23 18:33N 01°13' E 103°40'7 7.1
2016-Apr-23 17:33N 01°16' E 103°46'0 0.4
2016-Apr-23 16:32N 01°16' E 103°46'0 0.0
2016-Apr-23 15:32N 01°16' E 103°46'0 0.0
2016-Apr-23 14:32N 01°16' E 103°46'0 0.0
2016-Apr-23 13:29N 01°16' E 103°46'0 0.0
2016-Apr-23 12:32N 01°16' E 103°46'0 0.0
2016-Apr-23 11:32N 01°16' E 103°46'0 0.0
2016-Apr-23 10:29N 01°16' E 103°46'0 0.0
2016-Apr-23 09:32N 01°16' E 103°46'0 0.0
2016-Apr-23 08:32N 01°16' E 103°46'0 0.1
2016-Apr-23 07:32N 01°16' E 103°46'0 0.1
2016-Apr-23 06:29N 01°16' E 103°46'0 0.0
2016-Apr-23 05:29N 01°16' E 103°46'0 0.0
2016-Apr-23 04:32N 01°16' E 103°46'0 0.0
2016-Apr-23 03:32N 01°16' E 103°46'0 0.0
2016-Apr-23 02:32N 01°16' E 103°46'0 0.0
2016-Apr-23 01:29N 01°16' E 103°46'0 0.0
2016-Apr-23 00:29N 01°16' E 103°46'0 0.0
2016-Apr-22 23:29N 01°16' E 103°46'0 0.0
2016-Apr-22 22:32N 01°16' E 103°46'0 0.0
2016-Apr-22 21:23N 01°16' E 103°46'0 0.0
2016-Apr-22 20:28N 01°16' E 103°46'0 0.0
2016-Apr-22 19:28N 01°16' E 103°46'0 0.0
2016-Apr-22 18:28N 01°16' E 103°46'0 0.0
2016-Apr-22 17:28N 01°16' E 103°46'0 0.0
2016-Apr-22 16:31N 01°16' E 103°46'0 0.4
2016-Apr-22 15:33N 01°16' E 103°46'1 0.9
2016-Apr-22 14:33N 01°15' E 103°47'0 0.2
2016-Apr-22 13:33N 01°15' E 103°47'6 6.4
2016-Apr-22 12:33N 01°13' E 103°53'6 5.7
2016-Apr-22 11:33N 01°15' E 103°58'7 6.3
2016-Apr-22 10:27N 01°16' E 104°05'  
2016-Apr-19 10:32N 22°07' E 114°30'30 2.0
2016-Apr-18 19:15N 22°34' E 114°16'0 0.0
2016-Apr-18 17:33N 22°34' E 114°16'23 7.4
2016-Apr-18 14:25N 22°13' E 114°26'1214.0
2016-Apr-18 13:33N 22°07' E 114°15'1313.0
2016-Apr-18 12:34N 22°17' E 114°06'3 2.9
2016-Apr-18 11:30N 22°20' E 114°07'0 0.0
2016-Apr-18 10:30N 22°20' E 114°07'0 0.0
2016-Apr-18 09:30N 22°20' E 114°07'0 0.0
2016-Apr-18 08:33N 22°20' E 114°07'0 0.0
2016-Apr-18 07:30N 22°20' E 114°07'0 0.0
2016-Apr-18 06:30N 22°20' E 114°07'0 0.0
2016-Apr-18 05:30N 22°20' E 114°07'0 0.0
2016-Apr-18 04:30N 22°20' E 114°07'0 0.0
2016-Apr-18 03:30N 22°20' E 114°07'0 0.0
2016-Apr-18 02:30N 22°20' E 114°07'0 0.0
2016-Apr-18 01:30N 22°20' E 114°07'2 2.0
2016-Apr-18 00:34N 22°20' E 114°05'3 0.2
2016-Apr-17 08:29N 22°21' E 114°03'2010.2
2016-Apr-17 06:32N 22°08' E 114°18'32115.9
2016-Apr-16 10:17N 22°31' E 120°05'1316.7
2016-Apr-16 09:32N 22°33' E 120°18'0 0.0
2016-Apr-15 17:33N 22°33' E 120°18'6 6.1
2016-Apr-15 16:33N 22°33' E 120°12'1414.5
2016-Apr-15 15:33N 22°46' E 120°03'40119.8
2016-Apr-14 19:20N 29°04' E 122°28'1719.6
2016-Apr-14 18:27N 29°22' E 122°29'1819.4
2016-Apr-14 17:31N 29°40' E 122°29'1514.9
2016-Apr-14 16:30N 29°48' E 122°15'1111.4
2016-Apr-14 15:33N 29°55' E 122°05'2 0.6
2016-Apr-14 11:30N 29°54' E 122°02'0 0.0
2016-Apr-14 10:27N 29°54' E 122°02'0 0.0
2016-Apr-14 08:30N 29°54' E 122°02'0 0.0
2016-Apr-14 07:23N 29°54' E 122°02'0 0.0
2016-Apr-14 06:08N 29°54' E 122°02'0 0.0
2016-Apr-14 04:29N 29°54' E 122°02'  

Dump ship's entire track history